Carr, CO

2:21 AM MDT on August 24, 2016 (GMT -0600)
MesoWest | | Change Station

Elev 5389 ft 40.77 °N, 104.81 °W | Updated 3 hours ago

Scattered Clouds
Scattered Clouds
65.0 °F
Feels Like 65.0 °F
N
16.0
Wind Variable Wind from NNE
Gusts 20.0 mph

Today
High -- | Low -- °F
--% Chance of Precip.
Yesterday
High -- | Low -- °F
Precip. -- in
Pressure 30.12 in
Visibility 10.0 miles
Clouds Few 7000 ft
Scattered Clouds 9000 ft
Scattered Clouds 11000 ft
Dew Point Not available.
Humidity Not available.
Rainfall in
Snow Depth Not available.
6:18 AM 7:43 PM
Waning Gibbous, 59% visible
METAR KGXY 240815Z 23003KT 10SM FEW070 SCT090 SCT110 22/05 A3012 RMK AO1
Pressure 30.12 in
Visibility 10.0 miles
Clouds Few 7000 ft
Scattered Clouds 9000 ft
Scattered Clouds 11000 ft
Dew Point Not available.
Humidity Not available.
Rainfall in
Snow Depth Not available.
6:18 AM 7:43 PM
Waning Gibbous, 59% visible
METAR KGXY 240815Z 23003KT 10SM FEW070 SCT090 SCT110 22/05 A3012 RMK AO1

10-Day Weather Forecast

Almanac

Astronomy

Aug. 24, 2016 Rise Set
Actual Time
Civil Twilight
Nautical Twilight
Astronomical Twilight
Moon
Length of Visible Light
Length of Day
Tomorrow will be .
, % of the Moon is Illuminated

Today's Extremes

State Highs State Lows

Community

WunderPhotos

Upload Photos

1,934,560 photos uploaded!

WunderBlog® & News

Nearby

Air Quality

  Air Quality AQ Index Pollutant
Not available.

Snow Depth

Station Depth Elevation

Earthquake Activity

City Distance Mag. Time & Date
Minimum magnitude displayed is 2.5.

Coastal Water Temperatures

Place Temperature

Stations

Nearby Weather Stations

Station Location Temp. Windchill Dew Point Humidity Wind Precip. Elev Updated Type
                   

Watches & Warnings

There are currently no watches in effect.